Aviation Digital Data Service (ADDS)

Output produced by METARs form (1123 UTC 24 January 2019)
found at http://aviationweather.gov/metar/data/
 
METAR text: KDKB 241115Z AUTO 25004KT 3SM -SN CLR M14/M15 A2982 RMK AO2 T11391151
Conditions at: KDKB (DE KALB , IL, US) observed 1115 UTC 24 January 2019
Temperature: -13.9°C ( 7°F)
Dewpoint: -15.1°C ( 5°F) [RH = 91%]
Pressure (altimeter): 29.82 inches Hg (1009.9 mb)
Winds: from the WSW (250 degrees) at 5 MPH (4 knots; 2.1 m/s)
Visibility: 3 miles ( 5 km)
Ceiling: at least 12,000 feet AGL
Clouds: sky clear below 12,000 feet AGL
Weather: -SN  (light snow)